createdAt,value
2017-09-26T00:02:27.202Z,13.93
2017-09-26T00:04:55.474Z,15.03
2017-09-26T00:07:23.748Z,15.23
2017-09-26T00:09:52.040Z,14.30
2017-09-26T00:12:21.132Z,11.50
2017-09-26T00:14:49.378Z,12.17
2017-09-26T00:17:18.411Z,11.37
2017-09-26T00:19:46.660Z,14.63
2017-09-26T00:22:14.919Z,14.80
2017-09-26T00:24:43.946Z,13.53
2017-09-26T00:27:12.217Z,13.60
2017-09-26T00:29:41.244Z,12.47
2017-09-26T00:32:09.505Z,13.27
2017-09-26T00:34:37.756Z,16.07
2017-09-26T00:37:06.790Z,14.93
2017-09-26T00:39:35.039Z,14.73
2017-09-26T00:42:04.181Z,11.60
2017-09-26T00:44:32.465Z,11.53
2017-09-26T00:47:00.735Z,12.87
2017-09-26T00:49:28.979Z,14.97
2017-09-26T00:51:58.019Z,13.97
2017-09-26T00:54:26.268Z,16.13
2017-09-26T00:56:55.296Z,15.33
2017-09-26T00:59:23.560Z,14.40
2017-09-26T01:01:51.835Z,15.60
2017-09-26T01:04:20.859Z,16.30
2017-09-26T01:06:59.043Z,14.03
2017-09-26T01:09:28.055Z,14.77
2017-09-26T01:11:56.314Z,15.07
2017-09-26T01:14:25.339Z,17.67
2017-09-26T01:16:53.592Z,15.43
2017-09-26T01:19:22.614Z,16.40
2017-09-26T01:21:50.882Z,14.10
2017-09-26T01:24:19.910Z,13.67
2017-09-26T01:26:48.150Z,16.40
2017-09-26T01:29:17.187Z,13.80
2017-09-26T01:31:45.440Z,15.57
2017-09-26T01:34:14.566Z,15.87
2017-09-26T01:36:42.828Z,17.07
2017-09-26T01:39:11.104Z,17.93
2017-09-26T01:41:40.117Z,18.20
2017-09-26T01:44:08.409Z,17.80
2017-09-26T01:46:36.717Z,18.47
2017-09-26T01:49:04.976Z,18.20
2017-09-26T01:51:33.227Z,18.50
2017-09-26T01:54:01.576Z,18.63
2017-09-26T01:56:31.780Z,17.90
2017-09-26T01:59:06.057Z,16.23
2017-09-26T02:01:35.072Z,17.73
2017-09-26T02:04:03.338Z,19.37
2017-09-26T02:06:31.656Z,18.73
2017-09-26T02:08:59.951Z,18.87
2017-09-26T02:11:28.221Z,20.70
2017-09-26T02:13:56.595Z,21.17
2017-09-26T02:16:24.866Z,25.80
2017-09-26T02:18:53.116Z,20.43
2017-09-26T02:21:22.151Z,23.30
2017-09-26T02:23:50.411Z,24.27
2017-09-26T02:26:18.674Z,21.77
2017-09-26T02:28:47.689Z,21.13
2017-09-26T02:31:15.964Z,23.60
2017-09-26T02:33:44.222Z,24.23
2017-09-26T02:36:13.264Z,22.40
2017-09-26T02:38:41.511Z,22.23
2017-09-26T02:41:10.540Z,21.40
2017-09-26T02:43:38.801Z,22.93
2017-09-26T02:46:07.063Z,21.00
2017-09-26T02:48:36.080Z,27.20
2017-09-26T02:51:04.395Z,22.97
2017-09-26T02:53:32.628Z,27.67
2017-09-26T02:56:01.768Z,21.37
2017-09-26T02:58:30.052Z,22.67
2017-09-26T03:00:58.344Z,23.53
2017-09-26T03:03:26.595Z,23.87
2017-09-26T03:05:54.899Z,25.50
2017-09-26T03:08:23.175Z,25.10
2017-09-26T03:10:51.461Z,29.30
2017-09-26T03:13:19.714Z,24.67
2017-09-26T03:15:48.011Z,23.60
2017-09-26T03:18:16.304Z,24.10
2017-09-26T03:20:44.548Z,24.87
2017-09-26T03:23:12.936Z,23.13
2017-09-26T03:25:41.235Z,21.90
2017-09-26T03:28:09.507Z,23.80
2017-09-26T03:30:37.770Z,26.50
2017-09-26T03:33:06.034Z,27.97
2017-09-26T03:35:35.050Z,26.00
2017-09-26T03:38:03.310Z,26.30
2017-09-26T03:40:32.357Z,26.23
2017-09-26T03:43:00.619Z,24.00
2017-09-26T03:45:28.870Z,25.70
2017-09-26T03:47:57.897Z,28.80
2017-09-26T03:50:26.195Z,22.50
2017-09-26T03:52:54.461Z,27.13
2017-09-26T03:55:22.782Z,25.70
2017-09-26T03:57:51.055Z,30.43
2017-09-26T04:00:19.310Z,23.30
2017-09-26T04:02:47.579Z,28.57
2017-09-26T04:05:15.834Z,22.63
2017-09-26T04:07:44.855Z,27.27
2017-09-26T04:10:13.134Z,28.50
2017-09-26T04:12:41.408Z,23.37
2017-09-26T04:15:10.469Z,24.00
2017-09-26T04:17:38.762Z,23.30
2017-09-26T04:20:08.539Z,23.20
2017-09-26T04:22:36.801Z,24.23
2017-09-26T04:25:05.934Z,20.77
2017-09-26T04:27:34.219Z,28.90
2017-09-26T04:30:02.481Z,22.47
2017-09-26T04:32:30.804Z,22.33
2017-09-26T04:34:59.043Z,26.20
2017-09-26T04:37:27.322Z,24.83
2017-09-26T04:39:55.601Z,24.33
2017-09-26T04:42:23.850Z,24.63
2017-09-26T04:44:52.104Z,21.60
2017-09-26T04:47:21.145Z,21.97
2017-09-26T04:49:49.409Z,22.27
2017-09-26T04:52:17.731Z,25.53
2017-09-26T04:54:46.016Z,19.30
2017-09-26T04:57:14.299Z,19.83
2017-09-26T04:59:42.553Z,20.57
2017-09-26T05:02:10.820Z,22.87
2017-09-26T05:04:39.830Z,23.37
2017-09-26T05:07:08.107Z,23.97
2017-09-26T05:09:36.376Z,25.70
2017-09-26T05:12:05.419Z,22.67
2017-09-26T05:14:33.694Z,22.50
2017-09-26T05:17:01.958Z,21.90
2017-09-26T05:19:30.221Z,25.47
2017-09-26T05:21:59.255Z,23.83
2017-09-26T05:24:27.502Z,24.30
2017-09-26T05:26:55.814Z,23.00
2017-09-26T05:29:24.067Z,24.63
2017-09-26T05:31:52.335Z,22.87
2017-09-26T05:34:21.354Z,24.40
2017-09-26T05:36:49.619Z,22.57
2017-09-26T05:39:17.875Z,24.33
2017-09-26T05:41:47.214Z,21.50
2017-09-26T05:44:15.480Z,24.40
2017-09-26T05:46:44.515Z,22.33
2017-09-26T05:49:12.795Z,20.80
2017-09-26T05:51:41.064Z,23.07
2017-09-26T05:54:09.324Z,26.97
2017-09-26T05:56:38.362Z,24.80
2017-09-26T05:59:06.638Z,25.33
2017-09-26T06:01:34.898Z,23.40
2017-09-26T06:04:03.157Z,23.50
2017-09-26T06:06:32.184Z,25.70
2017-09-26T06:09:00.460Z,21.03
2017-09-26T06:11:28.715Z,28.77
2017-09-26T06:13:58.299Z,24.70
2017-09-26T06:16:26.826Z,24.83
2017-09-26T06:18:55.103Z,27.20
2017-09-26T06:21:24.150Z,27.23
2017-09-26T06:23:52.422Z,24.70
2017-09-26T06:26:20.674Z,23.50
2017-09-26T06:28:49.009Z,23.93
2017-09-26T06:31:17.263Z,26.83
2017-09-26T06:33:45.547Z,26.27
2017-09-26T06:36:13.853Z,26.43
2017-09-26T06:38:42.114Z,27.20
2017-09-26T06:41:10.384Z,27.23
2017-09-26T06:43:38.666Z,26.07
2017-09-26T06:46:06.935Z,25.50
2017-09-26T06:48:35.214Z,23.60
2017-09-26T06:51:03.482Z,23.50
2017-09-26T06:53:31.732Z,24.97
2017-09-26T06:56:00.005Z,27.40
2017-09-26T06:58:28.248Z,26.57
2017-09-26T07:00:56.516Z,22.90
2017-09-26T07:03:24.791Z,27.60
2017-09-26T07:05:53.062Z,26.50
2017-09-26T07:08:21.897Z,32.83
2017-09-26T07:10:50.159Z,29.60
2017-09-26T07:13:18.412Z,24.50
2017-09-26T07:15:46.685Z,29.77
2017-09-26T07:18:15.991Z,24.47
2017-09-26T07:20:45.055Z,26.03
2017-09-26T07:23:13.408Z,25.50
2017-09-26T07:25:41.680Z,26.80
2017-09-26T07:28:09.966Z,23.87
2017-09-26T07:30:38.243Z,27.23
2017-09-26T07:33:06.623Z,25.63
2017-09-26T07:35:34.875Z,26.30
2017-09-26T07:38:03.143Z,23.70
2017-09-26T07:40:32.155Z,19.90
2017-09-26T07:43:00.429Z,22.93
2017-09-26T07:45:29.600Z,24.30
2017-09-26T07:47:57.883Z,20.80
2017-09-26T07:50:26.207Z,22.67
2017-09-26T07:52:54.499Z,23.60
2017-09-26T07:55:22.772Z,27.10
2017-09-26T07:57:51.075Z,20.57
2017-09-26T08:00:19.328Z,24.30
2017-09-26T08:02:48.010Z,20.90
2017-09-26T08:05:16.783Z,19.40
2017-09-26T08:07:46.458Z,21.90
2017-09-26T08:10:14.926Z,19.67
2017-09-26T08:12:43.211Z,18.37
2017-09-26T08:15:11.487Z,19.40
2017-09-26T08:17:39.743Z,20.70
2017-09-26T08:20:08.042Z,18.80
2017-09-26T08:22:36.320Z,17.93
2017-09-26T08:25:04.589Z,22.30
2017-09-26T08:27:32.851Z,19.00
2017-09-26T08:30:01.872Z,19.43
2017-09-26T08:32:30.146Z,17.50
2017-09-26T08:34:58.403Z,17.90
2017-09-26T08:37:27.439Z,19.23
2017-09-26T08:39:55.738Z,19.10
2017-09-26T08:42:24.090Z,16.40
2017-09-26T08:44:52.476Z,17.90
2017-09-26T08:47:21.014Z,19.43
2017-09-26T08:49:49.402Z,21.43
2017-09-26T08:52:18.575Z,19.13
2017-09-26T08:54:46.872Z,20.97
2017-09-26T08:57:15.162Z,24.17
2017-09-26T08:59:43.504Z,20.67
2017-09-26T09:02:11.764Z,24.07
2017-09-26T09:04:40.036Z,19.13
2017-09-26T09:07:09.053Z,21.47
2017-09-26T09:09:39.117Z,25.10
2017-09-26T09:12:07.368Z,22.63
2017-09-26T09:14:35.626Z,20.33
2017-09-26T09:17:03.906Z,20.30
2017-09-26T09:19:32.240Z,19.90
2017-09-26T09:22:00.471Z,23.17
2017-09-26T09:24:28.738Z,22.30
2017-09-26T09:26:57.037Z,26.07
2017-09-26T09:29:25.448Z,21.70
2017-09-26T09:31:53.711Z,20.23
2017-09-26T09:34:21.994Z,22.07
2017-09-26T09:36:51.482Z,22.17
2017-09-26T09:39:21.218Z,22.03
2017-09-26T09:41:49.465Z,24.80
2017-09-26T09:44:17.740Z,25.93
2017-09-26T09:46:46.769Z,21.17
2017-09-26T09:49:15.032Z,26.10
2017-09-26T09:51:43.298Z,22.97
2017-09-26T09:54:12.336Z,23.60
2017-09-26T09:56:40.608Z,23.47
2017-09-26T09:59:08.898Z,21.47
2017-09-26T10:01:37.461Z,23.90
2017-09-26T10:04:05.708Z,23.87
2017-09-26T10:06:34.054Z,25.33
2017-09-26T10:09:02.301Z,21.00
2017-09-26T10:11:30.670Z,20.83
2017-09-26T10:13:58.977Z,22.63
2017-09-26T10:16:27.354Z,23.00
2017-09-26T10:18:55.606Z,20.07
2017-09-26T10:21:23.946Z,19.23
2017-09-26T10:23:52.207Z,21.53
2017-09-26T10:26:21.227Z,18.17
2017-09-26T10:28:49.677Z,16.40
2017-09-26T10:31:18.686Z,20.30
2017-09-26T10:33:46.954Z,16.80
2017-09-26T10:36:15.979Z,14.67
2017-09-26T10:38:44.241Z,15.60
2017-09-26T10:41:12.497Z,14.20
2017-09-26T10:43:40.769Z,15.07
2017-09-26T10:46:09.019Z,13.00
2017-09-26T10:48:37.287Z,12.33
2017-09-26T10:51:05.564Z,13.77
2017-09-26T10:53:33.841Z,17.73
2017-09-26T10:56:02.134Z,13.23
2017-09-26T10:58:30.407Z,14.40
2017-09-26T11:00:58.708Z,12.03
2017-09-26T11:03:27.000Z,12.13
2017-09-26T11:05:55.266Z,13.87
2017-09-26T11:08:23.520Z,11.60
2017-09-26T11:10:51.792Z,12.90
2017-09-26T11:13:20.095Z,13.07
2017-09-26T11:15:48.362Z,12.67
2017-09-26T11:18:17.519Z,13.03
2017-09-26T11:20:45.793Z,13.43
2017-09-26T11:23:14.050Z,12.40
2017-09-26T11:25:42.323Z,11.70
2017-09-26T11:28:10.607Z,14.20
2017-09-26T11:30:38.882Z,11.60
2017-09-26T11:33:07.165Z,15.03
2017-09-26T11:35:35.416Z,11.97
2017-09-26T11:38:03.686Z,13.40
2017-09-26T11:40:32.702Z,15.83
2017-09-26T11:43:00.970Z,13.93
2017-09-26T11:45:29.982Z,13.43
2017-09-26T11:47:58.245Z,14.00
2017-09-26T11:50:27.256Z,14.17
2017-09-26T11:52:55.591Z,14.10
2017-09-26T11:55:23.809Z,11.90
2017-09-26T11:57:53.064Z,12.67
2017-09-26T12:00:21.307Z,13.40
2017-09-26T12:02:49.606Z,15.17
2017-09-26T12:05:17.883Z,16.93
2017-09-26T12:07:46.415Z,13.43
2017-09-26T12:10:14.664Z,14.27
2017-09-26T12:12:42.916Z,14.67
2017-09-26T12:15:11.258Z,14.53
2017-09-26T12:17:39.603Z,18.33
2017-09-26T12:20:07.890Z,16.53
2017-09-26T12:22:36.131Z,15.63
2017-09-26T12:25:05.275Z,14.13
2017-09-26T12:27:33.562Z,14.27
2017-09-26T12:30:01.867Z,14.20
2017-09-26T12:32:30.215Z,13.43
2017-09-26T12:34:58.593Z,13.20
2017-09-26T12:37:26.892Z,14.93
2017-09-26T12:39:55.172Z,16.50
2017-09-26T12:42:23.409Z,17.70
2017-09-26T12:44:51.676Z,14.10
2017-09-26T12:47:20.726Z,15.07
2017-09-26T12:49:48.996Z,14.70
2017-09-26T12:52:17.246Z,14.73
2017-09-26T12:54:46.383Z,13.23
2017-09-26T12:57:14.684Z,14.90
2017-09-26T12:59:42.955Z,14.47
2017-09-26T13:02:11.208Z,14.70
2017-09-26T13:04:39.507Z,14.23
2017-09-26T13:07:07.757Z,19.10
2017-09-26T13:09:36.037Z,16.50
2017-09-26T13:12:05.051Z,13.57
2017-09-26T13:14:34.176Z,17.00
2017-09-26T13:17:02.427Z,19.30
2017-09-26T13:19:30.692Z,15.37
2017-09-26T13:21:59.720Z,15.40
2017-09-26T13:24:28.071Z,17.33
2017-09-26T13:26:57.087Z,12.80
2017-09-26T13:29:26.214Z,17.83
2017-09-26T13:31:54.475Z,15.60
2017-09-26T13:34:22.782Z,16.13
2017-09-26T13:36:51.050Z,13.80
2017-09-26T13:39:19.303Z,16.13
2017-09-26T13:41:48.330Z,14.60
2017-09-26T13:44:16.623Z,14.20
2017-09-26T13:46:44.897Z,15.00
2017-09-26T13:49:13.194Z,18.20
2017-09-26T13:51:41.453Z,15.10
2017-09-26T13:54:09.747Z,14.90
2017-09-26T13:56:38.025Z,18.20
2017-09-26T13:59:06.301Z,16.60
2017-09-26T14:01:34.599Z,15.87
2017-09-26T14:04:02.856Z,14.40
2017-09-26T14:06:31.119Z,15.63
2017-09-26T14:08:59.395Z,13.93
2017-09-26T14:11:28.418Z,16.47
2017-09-26T14:13:56.713Z,16.20
2017-09-26T14:16:25.361Z,15.00
2017-09-26T14:18:53.722Z,16.43
2017-09-26T14:21:22.378Z,16.83
2017-09-26T14:23:50.654Z,16.10
2017-09-26T14:26:18.910Z,16.53
2017-09-26T14:28:47.226Z,14.40
2017-09-26T14:31:15.545Z,14.43
2017-09-26T14:33:43.806Z,15.33
2017-09-26T14:36:12.054Z,17.10
2017-09-26T14:38:40.338Z,16.37
2017-09-26T14:41:08.608Z,13.60
2017-09-26T14:43:36.858Z,15.00
2017-09-26T14:46:05.909Z,14.70
2017-09-26T14:48:34.146Z,14.00
2017-09-26T14:51:03.174Z,16.10
2017-09-26T14:53:31.433Z,13.87
2017-09-26T14:55:59.706Z,13.63
2017-09-26T14:58:28.754Z,13.60
2017-09-26T15:00:57.015Z,15.30
2017-09-26T15:03:25.278Z,14.47
2017-09-26T15:05:53.543Z,13.33
2017-09-26T15:08:22.587Z,13.20
2017-09-26T15:10:50.863Z,13.63
2017-09-26T15:13:19.146Z,13.63
2017-09-26T15:15:47.413Z,15.50
2017-09-26T15:18:15.702Z,16.00
2017-09-26T15:20:43.977Z,13.23
2017-09-26T15:23:12.627Z,13.70
2017-09-26T15:25:41.682Z,12.00
2017-09-26T15:28:09.935Z,13.77
2017-09-26T15:30:38.205Z,14.17
2017-09-26T15:33:06.462Z,13.50
2017-09-26T15:35:35.624Z,12.47
2017-09-26T15:38:05.103Z,13.33
2017-09-26T15:40:33.411Z,12.67
2017-09-26T15:43:01.664Z,12.83
2017-09-26T15:45:30.058Z,16.53
2017-09-26T15:47:59.210Z,12.60
2017-09-26T15:50:27.532Z,12.33
2017-09-26T15:52:56.590Z,13.10
2017-09-26T15:55:25.112Z,13.43
2017-09-26T15:57:54.127Z,13.10
2017-09-26T16:00:22.420Z,14.30
2017-09-26T16:02:50.700Z,13.33
2017-09-26T16:05:19.031Z,12.73
2017-09-26T16:07:47.371Z,15.90
2017-09-26T16:10:15.655Z,12.70
2017-09-26T16:12:43.926Z,12.90
2017-09-26T16:15:12.176Z,13.20
2017-09-26T16:17:40.442Z,11.50
2017-09-26T16:20:09.546Z,12.93
2017-09-26T16:22:38.704Z,13.37
2017-09-26T16:25:06.971Z,15.27
2017-09-26T16:27:35.219Z,14.67
2017-09-26T16:30:03.471Z,15.07
2017-09-26T16:32:31.755Z,14.93
2017-09-26T16:35:00.003Z,14.97
2017-09-26T16:37:28.283Z,15.43
2017-09-26T16:39:56.531Z,19.40
2017-09-26T16:42:25.559Z,16.70
2017-09-26T16:44:53.832Z,18.90
2017-09-26T16:47:22.099Z,16.33
2017-09-26T16:49:50.403Z,17.70
2017-09-26T16:52:18.782Z,16.67
2017-09-26T16:54:47.033Z,17.40
2017-09-26T16:57:16.491Z,18.47
2017-09-26T16:59:44.727Z,16.23
2017-09-26T17:02:13.769Z,16.70
2017-09-26T17:04:42.066Z,17.63
2017-09-26T17:07:10.356Z,17.87
2017-09-26T17:09:38.599Z,15.17
2017-09-26T17:12:07.119Z,14.20
2017-09-26T17:14:35.378Z,15.60
2017-09-26T17:17:03.638Z,14.17
2017-09-26T17:19:31.896Z,20.03
2017-09-26T17:22:00.946Z,13.97
2017-09-26T17:24:29.221Z,13.40
2017-09-26T17:26:57.486Z,14.60
2017-09-26T17:29:25.750Z,13.33
2017-09-26T17:31:54.782Z,20.43
2017-09-26T17:34:23.043Z,14.43
2017-09-26T17:36:51.314Z,12.93
2017-09-26T17:39:19.570Z,16.30
2017-09-26T17:41:47.834Z,14.43
2017-09-26T17:44:16.080Z,14.07
2017-09-26T17:46:44.359Z,15.07
2017-09-26T17:49:12.610Z,13.70
2017-09-26T17:51:41.648Z,13.63
2017-09-26T17:54:09.912Z,15.93
2017-09-26T17:56:38.202Z,12.87
2017-09-26T17:59:06.472Z,15.82
2017-09-26T18:01:34.722Z,14.67
2017-09-26T18:04:03.771Z,14.67
2017-09-26T18:06:32.017Z,15.43
2017-09-26T18:09:01.059Z,14.27
2017-09-26T18:11:29.319Z,16.20
2017-09-26T18:13:57.621Z,15.90
2017-09-26T18:16:25.872Z,16.40
2017-09-26T18:18:54.145Z,14.20
2017-09-26T18:21:23.190Z,14.70
2017-09-26T18:23:51.546Z,14.33
2017-09-26T18:26:19.804Z,13.43
2017-09-26T18:28:48.070Z,16.13
2017-09-26T18:31:17.099Z,16.13
2017-09-26T18:33:45.398Z,16.30
2017-09-26T18:36:13.686Z,13.27
2017-09-26T18:38:41.954Z,14.20
2017-09-26T18:41:10.269Z,16.63
2017-09-26T18:43:38.536Z,16.63
2017-09-26T18:46:06.791Z,12.30
2017-09-26T18:48:35.084Z,14.80
2017-09-26T18:51:03.384Z,13.00
2017-09-26T18:53:31.750Z,13.63
2017-09-26T18:56:00.015Z,14.70
2017-09-26T18:58:28.311Z,13.73
2017-09-26T19:00:56.699Z,16.17
2017-09-26T19:03:25.104Z,15.40
2017-09-26T19:05:53.355Z,14.10
2017-09-26T19:08:21.923Z,14.87
2017-09-26T19:10:50.958Z,14.73
2017-09-26T19:13:19.218Z,15.07
2017-09-26T19:15:47.501Z,15.63
2017-09-26T19:18:15.768Z,14.60
2017-09-26T19:20:44.024Z,14.97
2017-09-26T19:23:13.051Z,13.67
2017-09-26T19:25:41.349Z,16.73
2017-09-26T19:28:09.606Z,13.53
2017-09-26T19:30:37.937Z,15.93
2017-09-26T19:33:06.185Z,13.37
2017-09-26T19:35:34.450Z,13.17
2017-09-26T19:38:03.494Z,13.50
2017-09-26T19:40:31.815Z,15.30
2017-09-26T19:43:00.829Z,14.30
2017-09-26T19:45:29.909Z,12.90
2017-09-26T19:47:58.937Z,31.03
2017-09-26T19:50:27.212Z,12.93
2017-09-26T19:52:55.519Z,12.77
2017-09-26T19:55:23.803Z,13.13
2017-09-26T19:57:52.082Z,13.67
2017-09-26T20:00:20.348Z,13.93
2017-09-26T20:02:48.710Z,11.60
2017-09-26T20:05:16.982Z,13.13
2017-09-26T20:07:45.991Z,13.83
2017-09-26T20:10:14.320Z,14.00
2017-09-26T20:12:42.578Z,15.37
2017-09-26T20:15:10.845Z,11.63
2017-09-26T20:17:39.094Z,13.17
2017-09-26T20:20:08.157Z,12.73
2017-09-26T20:22:36.412Z,14.03
2017-09-26T20:25:04.687Z,14.73
2017-09-26T20:27:33.703Z,14.07
2017-09-26T20:30:01.976Z,13.20
2017-09-26T20:32:30.229Z,12.80
2017-09-26T20:34:59.262Z,13.13
2017-09-26T20:37:27.530Z,11.30
2017-09-26T20:39:55.847Z,13.20
2017-09-26T20:42:24.177Z,11.67
2017-09-26T20:44:53.312Z,13.73
2017-09-26T20:47:21.698Z,14.27
2017-09-26T20:49:49.969Z,12.87
2017-09-26T20:52:18.223Z,11.90
2017-09-26T20:54:47.254Z,12.90
2017-09-26T20:57:15.500Z,13.27
2017-09-26T20:59:44.532Z,11.10
2017-09-26T21:02:12.826Z,12.47
2017-09-26T21:04:41.066Z,13.17
2017-09-26T21:07:09.343Z,11.57
2017-09-26T21:09:37.642Z,12.67
2017-09-26T21:12:05.906Z,13.50
2017-09-26T21:14:34.961Z,11.97
2017-09-26T21:17:04.040Z,12.43
2017-09-26T21:19:32.319Z,12.87
2017-09-26T21:22:00.584Z,12.23
2017-09-26T21:24:28.891Z,13.40
2017-09-26T21:26:57.272Z,12.17
2017-09-26T21:29:25.532Z,15.33
2017-09-26T21:31:53.798Z,12.90
2017-09-26T21:34:22.236Z,13.50
2017-09-26T21:36:50.504Z,12.27
2017-09-26T21:39:18.772Z,15.27
2017-09-26T21:41:47.046Z,12.37
2017-09-26T21:44:15.340Z,13.40
2017-09-26T21:46:43.613Z,13.50
2017-09-26T21:49:11.863Z,14.23
2017-09-26T21:51:40.133Z,15.70
2017-09-26T21:54:09.206Z,12.20
2017-09-26T21:56:38.231Z,11.67
2017-09-26T21:59:07.258Z,11.43
2017-09-26T22:01:35.518Z,14.13
2017-09-26T22:04:04.544Z,16.10
2017-09-26T22:06:32.821Z,13.50
2017-09-26T22:09:01.250Z,14.67
2017-09-26T22:11:30.322Z,14.00
2017-09-26T22:13:58.613Z,13.53
2017-09-26T22:16:26.895Z,13.63
2017-09-26T22:18:55.906Z,14.97
2017-09-26T22:21:24.235Z,12.40
2017-09-26T22:23:52.878Z,13.87
2017-09-26T22:26:21.125Z,13.03
2017-09-26T22:28:49.472Z,13.70
2017-09-26T22:31:17.729Z,12.73
2017-09-26T22:33:46.057Z,17.10
2017-09-26T22:36:14.416Z,15.70
2017-09-26T22:38:42.696Z,13.00
2017-09-26T22:41:10.989Z,14.57
2017-09-26T22:43:39.253Z,12.13
2017-09-26T22:46:07.527Z,14.47
2017-09-26T22:48:36.558Z,12.70
2017-09-26T22:51:04.893Z,12.70
2017-09-26T22:53:33.911Z,14.27
2017-09-26T22:56:02.165Z,13.63
2017-09-26T22:58:30.480Z,14.07
2017-09-26T23:00:58.777Z,16.87
2017-09-26T23:03:27.855Z,13.60
2017-09-26T23:05:56.131Z,13.87
2017-09-26T23:08:24.395Z,13.77
2017-09-26T23:10:52.655Z,14.43
2017-09-26T23:13:21.826Z,14.40
2017-09-26T23:15:50.071Z,15.30
2017-09-26T23:18:18.378Z,13.50
2017-09-26T23:20:47.663Z,14.40
2017-09-26T23:23:15.949Z,12.77
2017-09-26T23:25:44.222Z,16.73
2017-09-26T23:28:12.470Z,12.77
2017-09-26T23:30:41.608Z,13.93
2017-09-26T23:33:09.883Z,19.90
2017-09-26T23:35:38.154Z,13.23
2017-09-26T23:38:06.464Z,13.97
2017-09-26T23:40:34.732Z,13.47
2017-09-26T23:43:02.988Z,13.20
2017-09-26T23:45:31.258Z,16.87
2017-09-26T23:48:00.303Z,15.50
2017-09-26T23:50:28.574Z,13.57
2017-09-26T23:52:57.671Z,14.47
2017-09-26T23:55:25.944Z,12.73
2017-09-26T23:57:54.195Z,12.60
